createdAt,value
2023-05-07T00:00:54.456Z,17.91
2023-05-07T00:03:04.018Z,17.88
2023-05-07T00:05:14.353Z,17.85
2023-05-07T00:07:27.243Z,17.82
2023-05-07T00:09:36.850Z,17.81
2023-05-07T00:11:56.109Z,17.80
2023-05-07T00:14:05.887Z,17.76
2023-05-07T00:16:22.900Z,17.77
2023-05-07T00:18:32.328Z,17.74
2023-05-07T00:21:02.246Z,17.70
2023-05-07T00:23:11.989Z,17.65
2023-05-07T00:25:21.917Z,17.62
2023-05-07T00:27:31.240Z,17.58
2023-05-07T00:29:40.505Z,17.51
2023-05-07T00:31:51.711Z,17.43
2023-05-07T00:34:00.982Z,17.39
2023-05-07T00:36:11.448Z,17.33
2023-05-07T00:38:20.716Z,17.27
2023-05-07T00:40:30.224Z,17.20
2023-05-07T00:42:43.143Z,17.14
2023-05-07T00:44:53.299Z,17.05
2023-05-07T00:47:04.802Z,16.97
2023-05-07T00:49:17.514Z,16.89
2023-05-07T00:51:29.277Z,16.82
2023-05-07T00:53:38.947Z,16.76
2023-05-07T00:55:48.506Z,16.74
2023-05-07T00:57:58.270Z,16.70
2023-05-07T01:00:27.794Z,16.69
2023-05-07T01:02:37.736Z,16.68
2023-05-07T01:04:50.516Z,16.70
2023-05-07T01:07:02.233Z,16.70
2023-05-07T01:09:10.566Z,16.70
2023-05-07T01:11:20.765Z,16.72
2023-05-07T01:13:30.516Z,16.76
2023-05-07T01:15:42.128Z,16.78
2023-05-07T01:17:51.903Z,16.77
2023-05-07T01:20:08.413Z,16.77
2023-05-07T01:22:22.899Z,16.79
2023-05-07T01:24:42.204Z,16.76
2023-05-07T01:26:51.496Z,16.75
2023-05-07T01:29:04.488Z,16.74
2023-05-07T01:31:25.177Z,16.73
2023-05-07T01:33:37.760Z,16.70
2023-05-07T01:35:50.632Z,16.66
2023-05-07T01:38:00.145Z,16.63
2023-05-07T01:40:14.349Z,16.62
2023-05-07T01:42:35.194Z,16.60
2023-05-07T01:44:48.627Z,16.52
2023-05-07T01:46:59.564Z,16.45
2023-05-07T01:49:09.075Z,16.39
2023-05-07T01:51:18.940Z,16.33
2023-05-07T01:53:29.663Z,16.24
2023-05-07T01:55:39.252Z,16.11
2023-05-07T01:57:48.475Z,16.01
2023-05-07T01:59:57.684Z,15.92
2023-05-07T02:02:18.149Z,15.85
2023-05-07T02:04:28.300Z,15.78
2023-05-07T02:06:41.356Z,15.72
2023-05-07T02:08:52.392Z,15.66
2023-05-07T02:11:01.956Z,15.62
2023-05-07T02:13:12.314Z,15.56
2023-05-07T02:15:25.427Z,15.55
2023-05-07T02:17:35.589Z,15.50
2023-05-07T02:19:48.158Z,15.43
2023-05-07T02:21:57.486Z,15.38
2023-05-07T02:24:13.060Z,15.35
2023-05-07T02:26:24.019Z,15.35
2023-05-07T02:28:33.319Z,15.34
2023-05-07T02:30:49.284Z,15.33
2023-05-07T02:32:58.947Z,15.27
2023-05-07T02:35:10.063Z,15.27
2023-05-07T02:37:39.742Z,15.25
2023-05-07T02:39:49.183Z,15.23
2023-05-07T02:41:58.359Z,15.22
2023-05-07T02:44:08.072Z,15.22
2023-05-07T02:46:18.457Z,15.21
2023-05-07T02:48:31.996Z,15.20
2023-05-07T02:50:41.418Z,15.19
2023-05-07T02:53:00.975Z,15.16
2023-05-07T02:55:22.283Z,15.13
2023-05-07T02:57:31.932Z,15.09
2023-05-07T02:59:41.448Z,15.06
2023-05-07T03:01:50.756Z,15.02
2023-05-07T03:04:00.023Z,14.99
2023-05-07T03:06:10.228Z,14.96
2023-05-07T03:08:19.946Z,14.93
2023-05-07T03:10:32.555Z,14.90
2023-05-07T03:12:42.088Z,14.87
2023-05-07T03:14:51.713Z,14.84
2023-05-07T03:17:01.015Z,14.83
2023-05-07T03:19:14.133Z,14.81
2023-05-07T03:21:23.574Z,14.79
2023-05-07T03:23:35.631Z,14.78
2023-05-07T03:25:45.086Z,14.75
2023-05-07T03:27:54.586Z,14.73
2023-05-07T03:30:05.638Z,14.71
2023-05-07T03:32:15.729Z,14.69
2023-05-07T03:34:25.244Z,14.67
2023-05-07T03:36:38.359Z,14.65
2023-05-07T03:38:51.333Z,14.63
2023-05-07T03:41:03.500Z,14.61
2023-05-07T03:43:13.432Z,14.59
2023-05-07T03:45:27.918Z,14.57
2023-05-07T03:47:44.421Z,14.55
2023-05-07T03:49:56.262Z,14.53
2023-05-07T03:52:06.820Z,14.50
2023-05-07T03:54:16.779Z,14.48
2023-05-07T03:56:29.700Z,14.47
2023-05-07T03:58:42.569Z,14.44
2023-05-07T04:00:55.167Z,14.42
2023-05-07T04:03:07.315Z,14.40
2023-05-07T04:05:17.532Z,14.36
2023-05-07T04:07:28.188Z,14.32
2023-05-07T04:09:37.683Z,14.32
2023-05-07T04:11:46.933Z,14.28
2023-05-07T04:13:59.094Z,14.26
2023-05-07T04:16:19.748Z,14.25
2023-05-07T04:18:29.309Z,14.24
2023-05-07T04:20:42.813Z,14.21
2023-05-07T04:22:53.504Z,14.20
2023-05-07T04:25:02.866Z,14.18
2023-05-07T04:27:13.650Z,14.18
2023-05-07T04:29:26.974Z,14.17
2023-05-07T04:31:36.796Z,14.16
2023-05-07T04:33:49.659Z,14.14
2023-05-07T04:35:59.076Z,14.13
2023-05-07T04:38:08.599Z,14.13
2023-05-07T04:40:18.974Z,14.09
2023-05-07T04:42:28.552Z,14.09
2023-05-07T04:44:38.603Z,14.08
2023-05-07T04:46:51.161Z,14.07
2023-05-07T04:49:00.737Z,14.05
2023-05-07T04:51:11.048Z,14.03
2023-05-07T04:53:20.720Z,14.02
2023-05-07T04:55:30.611Z,14.02
2023-05-07T04:57:40.990Z,14.00
2023-05-07T04:59:50.597Z,13.98
2023-05-07T05:02:00.013Z,13.97
2023-05-07T05:04:10.097Z,13.97
2023-05-07T05:06:19.544Z,13.97
2023-05-07T05:08:29.056Z,13.95
2023-05-07T05:10:43.035Z,13.95
2023-05-07T05:12:53.151Z,13.93
2023-05-07T05:15:23.212Z,13.89
2023-05-07T05:17:32.452Z,13.90
2023-05-07T05:19:45.260Z,13.87
2023-05-07T05:21:54.912Z,13.86
2023-05-07T05:24:12.752Z,13.85
2023-05-07T05:26:32.273Z,13.85
2023-05-07T05:28:41.784Z,13.83
2023-05-07T05:30:51.178Z,13.83
2023-05-07T05:33:11.088Z,13.82
2023-05-07T05:35:20.704Z,13.81
2023-05-07T05:37:31.577Z,13.80
2023-05-07T05:39:41.750Z,13.78
2023-05-07T05:41:51.292Z,13.76
2023-05-07T05:44:00.704Z,13.75
2023-05-07T05:46:21.372Z,13.73
2023-05-07T05:48:33.462Z,13.69
2023-05-07T05:50:44.670Z,13.67
2023-05-07T05:53:00.478Z,13.64
2023-05-07T05:55:29.829Z,13.61
2023-05-07T05:57:39.456Z,13.59
2023-05-07T05:59:49.167Z,13.56
2023-05-07T06:01:58.479Z,13.54
2023-05-07T06:04:08.339Z,13.52
2023-05-07T06:06:17.986Z,13.50
2023-05-07T06:08:27.433Z,13.47
2023-05-07T06:10:38.299Z,13.44
2023-05-07T06:12:48.481Z,13.43
2023-05-07T06:15:00.980Z,13.40
2023-05-07T06:17:10.865Z,13.39
2023-05-07T06:19:24.480Z,13.36
2023-05-07T06:21:34.417Z,13.35
2023-05-07T06:23:44.305Z,13.32
2023-05-07T06:25:54.833Z,13.30
2023-05-07T06:28:07.010Z,13.28
2023-05-07T06:30:18.861Z,13.24
2023-05-07T06:32:28.828Z,13.23
2023-05-07T06:34:38.341Z,13.21
2023-05-07T06:36:47.743Z,13.19
2023-05-07T06:39:14.929Z,13.18
2023-05-07T06:41:34.469Z,13.17
2023-05-07T06:43:49.719Z,13.16
2023-05-07T06:46:28.031Z,13.14
2023-05-07T06:48:37.433Z,13.10
2023-05-07T06:51:07.040Z,13.06
2023-05-07T06:53:16.423Z,13.01
2023-05-07T06:55:26.323Z,12.93
2023-05-07T06:57:35.693Z,12.90
2023-05-07T06:59:45.345Z,12.86
2023-05-07T07:02:04.818Z,12.82
2023-05-07T07:04:18.261Z,12.76
2023-05-07T07:06:33.211Z,12.73
2023-05-07T07:08:41.264Z,12.70
2023-05-07T07:10:50.605Z,12.67
2023-05-07T07:13:03.195Z,12.64
2023-05-07T07:15:16.250Z,12.61
2023-05-07T07:17:26.175Z,12.57
2023-05-07T07:19:37.401Z,12.52
2023-05-07T07:22:06.575Z,12.47
2023-05-07T07:24:22.598Z,12.43
2023-05-07T07:26:35.851Z,12.41
2023-05-07T07:28:56.624Z,12.39
2023-05-07T07:31:17.779Z,12.38
2023-05-07T07:33:27.710Z,12.34
2023-05-07T07:35:37.045Z,12.36
2023-05-07T07:37:47.612Z,12.34
2023-05-07T07:39:57.766Z,12.31
2023-05-07T07:42:07.970Z,12.31
2023-05-07T07:44:17.390Z,12.30
2023-05-07T07:46:30.886Z,12.27
2023-05-07T07:48:41.322Z,12.25
2023-05-07T07:50:53.571Z,12.24
2023-05-07T07:53:12.877Z,12.22
2023-05-07T07:55:25.669Z,12.20
2023-05-07T07:57:35.797Z,12.18
2023-05-07T07:59:45.651Z,12.15
2023-05-07T08:01:58.249Z,12.13
2023-05-07T08:04:09.442Z,12.08
2023-05-07T08:06:19.219Z,12.03
2023-05-07T08:08:29.110Z,12.00
2023-05-07T08:10:40.528Z,11.95
2023-05-07T08:12:58.557Z,11.93
2023-05-07T08:15:27.951Z,11.90
2023-05-07T08:17:37.730Z,11.90
2023-05-07T08:19:50.929Z,11.90
2023-05-07T08:22:00.302Z,11.89
2023-05-07T08:24:10.391Z,11.87
2023-05-07T08:26:22.914Z,11.86
2023-05-07T08:28:42.874Z,11.85
2023-05-07T08:30:52.370Z,11.82
2023-05-07T08:33:05.031Z,11.79
2023-05-07T08:35:15.145Z,11.78
2023-05-07T08:37:24.868Z,11.75
2023-05-07T08:39:34.231Z,11.72
2023-05-07T08:41:45.492Z,11.70
2023-05-07T08:43:58.166Z,11.67
2023-05-07T08:46:10.217Z,11.64
2023-05-07T08:48:32.238Z,11.61
2023-05-07T08:50:50.593Z,11.60
2023-05-07T08:53:01.458Z,11.57
2023-05-07T08:55:15.811Z,11.53
2023-05-07T08:57:25.994Z,11.50
2023-05-07T08:59:38.172Z,11.45
2023-05-07T09:01:48.045Z,11.41
2023-05-07T09:03:58.019Z,11.35
2023-05-07T09:06:18.206Z,11.31
2023-05-07T09:08:29.746Z,11.28
2023-05-07T09:10:41.999Z,11.25
2023-05-07T09:12:53.538Z,11.22
2023-05-07T09:15:04.198Z,11.19
2023-05-07T09:17:14.101Z,11.18
2023-05-07T09:19:32.969Z,11.14
2023-05-07T09:21:43.915Z,11.11
2023-05-07T09:23:57.957Z,11.06
2023-05-07T09:26:14.410Z,11.01
2023-05-07T09:28:35.517Z,10.99
2023-05-07T09:30:45.688Z,10.95
2023-05-07T09:32:56.264Z,10.91
2023-05-07T09:35:06.649Z,10.89
2023-05-07T09:37:19.022Z,10.87
2023-05-07T09:39:28.850Z,10.83
2023-05-07T09:41:45.960Z,10.82
2023-05-07T09:44:04.504Z,10.82
2023-05-07T09:46:21.682Z,10.81
2023-05-07T09:48:34.954Z,10.80
2023-05-07T09:50:51.217Z,10.81
2023-05-07T09:53:02.603Z,10.81
2023-05-07T09:55:14.371Z,10.81
2023-05-07T09:57:26.628Z,10.83
2023-05-07T09:59:40.216Z,10.80
2023-05-07T10:02:12.538Z,10.72
2023-05-07T10:04:28.420Z,10.78
2023-05-07T10:06:37.825Z,10.78
2023-05-07T10:08:48.132Z,10.77
2023-05-07T10:10:57.348Z,10.77
2023-05-07T10:13:12.062Z,10.76
2023-05-07T10:15:25.948Z,10.75
2023-05-07T10:17:38.126Z,10.74
2023-05-07T10:19:49.352Z,10.74
2023-05-07T10:22:04.677Z,10.74
2023-05-07T10:24:22.228Z,10.75
2023-05-07T10:26:33.789Z,10.75
2023-05-07T10:28:46.270Z,10.76
2023-05-07T10:31:07.995Z,10.77
2023-05-07T10:33:27.274Z,10.78
2023-05-07T10:35:41.937Z,10.79
2023-05-07T10:37:52.112Z,10.78
2023-05-07T10:40:01.762Z,10.76
2023-05-07T10:42:15.985Z,10.74
2023-05-07T10:44:33.030Z,10.76
2023-05-07T10:47:06.531Z,10.74
2023-05-07T10:49:16.550Z,10.77
2023-05-07T10:51:48.298Z,10.78
2023-05-07T10:54:28.063Z,10.77
2023-05-07T10:56:44.357Z,10.76
2023-05-07T10:59:46.582Z,10.77
2023-05-07T11:02:01.022Z,10.77
2023-05-07T11:04:25.876Z,10.76
2023-05-07T11:07:06.744Z,10.75
2023-05-07T11:09:20.334Z,10.76
2023-05-07T11:11:52.672Z,10.76
2023-05-07T11:14:10.539Z,10.75
2023-05-07T11:16:38.230Z,10.74
2023-05-07T11:19:13.503Z,10.71
2023-05-07T11:21:39.748Z,10.71
2023-05-07T11:24:13.801Z,10.69
2023-05-07T11:26:46.683Z,10.64
2023-05-07T11:28:57.267Z,10.64
2023-05-07T11:31:07.983Z,10.64
2023-05-07T11:33:22.063Z,10.65
2023-05-07T11:35:35.591Z,10.66
2023-05-07T11:37:47.807Z,10.64
2023-05-07T11:40:07.960Z,10.63
2023-05-07T11:42:30.960Z,10.61
2023-05-07T11:44:50.863Z,10.61
2023-05-07T11:47:01.294Z,10.61
2023-05-07T11:49:11.508Z,10.61
2023-05-07T11:51:23.877Z,10.61
2023-05-07T11:53:39.682Z,10.62
2023-05-07T11:55:48.920Z,10.61
2023-05-07T11:57:58.183Z,10.61
2023-05-07T12:00:09.738Z,10.62
2023-05-07T12:02:26.496Z,10.62
2023-05-07T12:04:36.458Z,10.63
2023-05-07T12:06:46.181Z,10.63
2023-05-07T12:08:56.057Z,10.63
2023-05-07T12:11:05.086Z,10.62
2023-05-07T12:13:21.063Z,10.62
2023-05-07T12:15:30.390Z,10.62
2023-05-07T12:17:39.890Z,10.62
2023-05-07T12:19:49.806Z,10.63
2023-05-07T12:21:59.790Z,10.62
2023-05-07T12:24:10.779Z,10.60
2023-05-07T12:26:22.326Z,10.56
2023-05-07T12:28:33.291Z,10.54
2023-05-07T12:30:44.758Z,10.53
2023-05-07T12:32:57.340Z,10.54
2023-05-07T12:35:08.587Z,10.53
2023-05-07T12:37:18.204Z,10.52
2023-05-07T12:39:27.620Z,10.50
2023-05-07T12:41:55.073Z,10.49
2023-05-07T12:44:06.956Z,10.49
2023-05-07T12:46:18.512Z,10.49
2023-05-07T12:48:28.340Z,10.47
2023-05-07T12:50:37.984Z,10.46
2023-05-07T12:52:48.514Z,10.44
2023-05-07T12:54:57.962Z,10.44
2023-05-07T12:57:10.283Z,10.42
2023-05-07T12:59:19.304Z,10.41
2023-05-07T13:01:34.003Z,10.42
2023-05-07T13:03:43.525Z,10.39
2023-05-07T13:05:53.022Z,10.39
2023-05-07T13:08:02.596Z,10.40
2023-05-07T13:10:13.499Z,10.40
2023-05-07T13:12:23.105Z,10.39
2023-05-07T13:14:32.394Z,10.38
2023-05-07T13:16:42.321Z,10.38
2023-05-07T13:18:51.841Z,10.37
2023-05-07T13:21:01.624Z,10.37
2023-05-07T13:23:10.952Z,10.36
2023-05-07T13:25:20.196Z,10.35
2023-05-07T13:27:29.426Z,10.33
2023-05-07T13:29:38.531Z,10.32
2023-05-07T13:31:48.448Z,10.31
2023-05-07T13:33:59.008Z,10.29
2023-05-07T13:36:09.108Z,10.30
2023-05-07T13:38:19.224Z,10.31
2023-05-07T13:40:28.970Z,10.32
2023-05-07T13:42:38.032Z,10.34
2023-05-07T13:44:47.635Z,10.35
2023-05-07T13:46:56.930Z,10.35
2023-05-07T13:49:05.960Z,10.36
2023-05-07T13:51:15.124Z,10.35
2023-05-07T13:53:24.549Z,10.36
2023-05-07T13:55:34.366Z,10.36
2023-05-07T13:57:43.316Z,10.34
2023-05-07T13:59:52.687Z,10.34
2023-05-07T14:02:01.795Z,10.33
2023-05-07T14:04:11.133Z,10.34
2023-05-07T14:06:20.205Z,10.36
2023-05-07T14:08:31.706Z,10.38
2023-05-07T14:10:41.348Z,10.40
2023-05-07T14:12:50.848Z,10.42
2023-05-07T14:15:00.225Z,10.43
2023-05-07T14:17:09.717Z,10.44
2023-05-07T14:19:18.919Z,10.44
2023-05-07T14:21:29.138Z,10.43
2023-05-07T14:23:38.653Z,10.42
2023-05-07T14:25:48.947Z,10.42
2023-05-07T14:27:58.462Z,10.43
2023-05-07T14:30:08.284Z,10.44
2023-05-07T14:32:17.542Z,10.47
2023-05-07T14:34:26.648Z,10.49
2023-05-07T14:36:35.874Z,10.49
2023-05-07T14:38:45.348Z,10.52
2023-05-07T14:40:57.111Z,10.52
2023-05-07T14:43:06.238Z,10.57
2023-05-07T14:45:16.014Z,10.59
2023-05-07T14:47:25.346Z,10.61
2023-05-07T14:49:35.080Z,10.63
2023-05-07T14:51:44.369Z,10.65
2023-05-07T14:53:53.971Z,10.67
2023-05-07T14:56:03.115Z,10.71
2023-05-07T14:58:13.032Z,10.74
2023-05-07T15:00:23.274Z,10.79
2023-05-07T15:02:32.695Z,10.81
2023-05-07T15:04:47.169Z,10.84
2023-05-07T15:06:57.410Z,10.86
2023-05-07T15:09:07.333Z,10.90
2023-05-07T15:11:16.409Z,10.94
2023-05-07T15:13:25.886Z,11.01
2023-05-07T15:15:35.103Z,11.07
2023-05-07T15:17:44.784Z,11.13
2023-05-07T15:19:55.068Z,11.21
2023-05-07T15:22:04.675Z,11.29
2023-05-07T15:24:14.277Z,11.39
2023-05-07T15:26:24.739Z,11.53
2023-05-07T15:28:34.124Z,11.66
2023-05-07T15:30:43.548Z,11.79
2023-05-07T15:32:54.820Z,11.92
2023-05-07T15:35:04.040Z,12.02
2023-05-07T15:37:13.198Z,12.14
2023-05-07T15:39:24.836Z,12.24
2023-05-07T15:41:34.392Z,12.30
2023-05-07T15:43:50.888Z,12.40
2023-05-07T15:46:01.551Z,12.45
2023-05-07T15:48:11.068Z,12.43
2023-05-07T15:50:20.286Z,12.45
2023-05-07T15:52:29.905Z,12.43
2023-05-07T15:54:40.748Z,12.46
2023-05-07T15:56:49.876Z,12.53
2023-05-07T15:58:59.368Z,12.60
2023-05-07T16:01:08.778Z,12.71
2023-05-07T16:03:19.255Z,12.80
2023-05-07T16:05:28.693Z,12.86
2023-05-07T16:07:37.893Z,12.92
2023-05-07T16:09:47.706Z,13.00
2023-05-07T16:11:56.920Z,13.03
2023-05-07T16:14:06.085Z,13.03
2023-05-07T16:16:15.343Z,13.01
2023-05-07T16:18:24.689Z,12.98
2023-05-07T16:20:34.159Z,12.92
2023-05-07T16:22:43.391Z,12.86
2023-05-07T16:24:52.517Z,12.84
2023-05-07T16:27:01.854Z,12.86
2023-05-07T16:29:11.468Z,12.91
2023-05-07T16:31:20.678Z,13.00
2023-05-07T16:33:30.101Z,13.11
2023-05-07T16:35:39.288Z,13.25
2023-05-07T16:37:48.558Z,13.39
2023-05-07T16:40:00.049Z,13.50
2023-05-07T16:42:09.829Z,13.66
2023-05-07T16:44:19.089Z,13.79
2023-05-07T16:46:28.585Z,13.87
2023-05-07T16:48:37.724Z,14.01
2023-05-07T16:50:46.996Z,14.13
2023-05-07T16:52:56.246Z,14.25
2023-05-07T16:55:05.426Z,14.36
2023-05-07T16:57:14.524Z,14.43
2023-05-07T16:59:24.074Z,14.46
2023-05-07T17:01:33.655Z,14.49
2023-05-07T17:03:42.969Z,14.59
2023-05-07T17:05:52.251Z,14.62
2023-05-07T17:08:01.751Z,14.65
2023-05-07T17:10:12.893Z,14.69
2023-05-07T17:12:22.041Z,14.75
2023-05-07T17:14:31.516Z,14.83
2023-05-07T17:16:40.942Z,14.90
2023-05-07T17:18:50.035Z,14.95
2023-05-07T17:20:59.361Z,14.98
2023-05-07T17:23:08.590Z,15.01
2023-05-07T17:25:17.847Z,15.03
2023-05-07T17:27:27.145Z,15.06
2023-05-07T17:29:36.119Z,15.09
2023-05-07T17:31:45.315Z,15.08
2023-05-07T17:33:54.467Z,15.09
2023-05-07T17:36:04.616Z,15.11
2023-05-07T17:38:14.071Z,15.09
2023-05-07T17:40:24.328Z,15.05
2023-05-07T17:42:33.564Z,15.09
2023-05-07T17:44:42.628Z,15.13
2023-05-07T17:46:51.697Z,15.13
2023-05-07T17:49:00.910Z,15.12
2023-05-07T17:51:10.028Z,15.09
2023-05-07T17:53:19.316Z,15.11
2023-05-07T17:55:28.775Z,15.11
2023-05-07T17:57:38.091Z,15.16
2023-05-07T17:59:47.176Z,15.22
2023-05-07T18:01:56.644Z,15.26
2023-05-07T18:04:06.501Z,15.30
2023-05-07T18:06:19.287Z,15.32
2023-05-07T18:08:28.659Z,15.37
2023-05-07T18:10:37.192Z,15.42
2023-05-07T18:12:46.366Z,15.45
2023-05-07T18:14:55.626Z,15.48
2023-05-07T18:17:04.905Z,15.54
2023-05-07T18:19:14.284Z,15.58
2023-05-07T18:21:23.454Z,15.57
2023-05-07T18:23:34.140Z,15.51
2023-05-07T18:25:43.392Z,15.43
2023-05-07T18:27:52.501Z,15.35
2023-05-07T18:30:01.611Z,15.30
2023-05-07T18:32:11.176Z,15.31
2023-05-07T18:34:20.428Z,15.35
2023-05-07T18:36:29.858Z,15.45
2023-05-07T18:38:39.223Z,15.52
2023-05-07T18:40:48.921Z,15.58
2023-05-07T18:42:58.424Z,15.55
2023-05-07T18:45:08.468Z,15.55
2023-05-07T18:47:17.751Z,15.61
2023-05-07T18:49:26.788Z,15.68
2023-05-07T18:51:36.127Z,15.66
2023-05-07T18:53:45.305Z,15.64
2023-05-07T18:55:55.064Z,15.57
2023-05-07T18:58:04.218Z,15.55
2023-05-07T19:00:15.515Z,15.49
2023-05-07T19:02:25.088Z,15.42
2023-05-07T19:04:34.760Z,15.39
2023-05-07T19:06:43.934Z,15.36
2023-05-07T19:08:53.496Z,15.34
2023-05-07T19:11:03.784Z,15.34
2023-05-07T19:13:13.168Z,15.37
2023-05-07T19:15:23.679Z,15.41
2023-05-07T19:17:33.062Z,15.49
2023-05-07T19:19:42.281Z,15.50
2023-05-07T19:21:51.680Z,15.54
2023-05-07T19:24:01.281Z,15.57
2023-05-07T19:26:10.854Z,15.50
2023-05-07T19:28:20.202Z,15.43
2023-05-07T19:30:29.860Z,15.31
2023-05-07T19:32:39.170Z,15.20
2023-05-07T19:34:48.429Z,15.14
2023-05-07T19:36:57.577Z,15.12
2023-05-07T19:39:07.182Z,15.14
2023-05-07T19:41:16.812Z,15.18
2023-05-07T19:43:26.027Z,15.24
2023-05-07T19:45:35.548Z,15.28
2023-05-07T19:47:44.912Z,15.32
2023-05-07T19:49:54.094Z,15.35
2023-05-07T19:52:03.573Z,15.39
2023-05-07T19:54:12.774Z,15.40
2023-05-07T19:56:22.676Z,15.41
2023-05-07T19:58:32.240Z,15.42
2023-05-07T20:00:43.171Z,15.44
2023-05-07T20:02:52.629Z,15.46
2023-05-07T20:05:02.217Z,15.48
2023-05-07T20:07:11.412Z,15.51
2023-05-07T20:09:20.490Z,15.52
2023-05-07T20:11:30.463Z,15.55
2023-05-07T20:13:39.736Z,15.57
2023-05-07T20:15:49.065Z,15.61
2023-05-07T20:17:58.339Z,15.66
2023-05-07T20:20:09.790Z,15.72
2023-05-07T20:22:19.090Z,15.78
2023-05-07T20:24:28.393Z,15.82
2023-05-07T20:26:37.127Z,15.87
2023-05-07T20:28:46.797Z,15.93
2023-05-07T20:30:56.044Z,15.97
2023-05-07T20:33:05.790Z,16.01
2023-05-07T20:35:15.581Z,16.04
2023-05-07T20:37:25.683Z,16.06
2023-05-07T20:39:35.173Z,16.11
2023-05-07T20:41:45.273Z,16.11
2023-05-07T20:43:54.545Z,16.09
2023-05-07T20:46:08.031Z,16.07
2023-05-07T20:48:17.405Z,16.08
2023-05-07T20:50:28.305Z,16.07
2023-05-07T20:52:37.728Z,16.07
2023-05-07T20:54:47.746Z,16.08
2023-05-07T20:56:58.251Z,16.08
2023-05-07T20:59:07.664Z,16.07
2023-05-07T21:01:16.830Z,16.02
2023-05-07T21:03:26.301Z,16.00
2023-05-07T21:05:35.843Z,16.01
2023-05-07T21:07:45.017Z,16.04
2023-05-07T21:09:54.211Z,16.09
2023-05-07T21:12:04.477Z,16.12
2023-05-07T21:14:13.694Z,16.18
2023-05-07T21:16:23.229Z,16.28
2023-05-07T21:18:32.553Z,16.37
2023-05-07T21:20:41.914Z,16.44
2023-05-07T21:22:50.996Z,16.50
2023-05-07T21:25:00.162Z,16.57
2023-05-07T21:27:09.646Z,16.63
2023-05-07T21:29:18.830Z,16.69
2023-05-07T21:31:28.420Z,16.76
2023-05-07T21:33:38.470Z,16.82
2023-05-07T21:35:47.693Z,16.91
2023-05-07T21:37:56.828Z,17.02
2023-05-07T21:40:06.372Z,17.10
2023-05-07T21:42:15.869Z,17.26
2023-05-07T21:44:25.238Z,17.44
2023-05-07T21:46:35.034Z,17.59
2023-05-07T21:48:44.261Z,17.69
2023-05-07T21:51:03.781Z,17.76
2023-05-07T21:53:12.960Z,17.91
2023-05-07T21:55:22.798Z,18.07
2023-05-07T21:57:32.002Z,18.25
2023-05-07T21:59:41.155Z,18.41
2023-05-07T22:01:50.203Z,18.58
2023-05-07T22:03:59.511Z,18.73
2023-05-07T22:06:09.617Z,18.84
2023-05-07T22:08:18.874Z,18.93
2023-05-07T22:10:28.305Z,19.01
2023-05-07T22:12:37.964Z,19.10
2023-05-07T22:14:47.624Z,19.18
2023-05-07T22:16:56.817Z,19.22
2023-05-07T22:19:06.708Z,19.26
2023-05-07T22:21:15.960Z,19.25
2023-05-07T22:23:25.121Z,19.19
2023-05-07T22:25:36.661Z,19.19
2023-05-07T22:27:46.706Z,19.22
2023-05-07T22:29:57.457Z,19.26
2023-05-07T22:32:07.145Z,19.31
2023-05-07T22:34:16.365Z,19.35
2023-05-07T22:36:25.534Z,19.41
2023-05-07T22:38:35.228Z,19.43
2023-05-07T22:40:44.615Z,19.48
2023-05-07T22:42:54.073Z,19.51
2023-05-07T22:45:03.699Z,19.52
2023-05-07T22:47:12.819Z,19.55
2023-05-07T22:49:22.021Z,19.61
2023-05-07T22:51:31.137Z,19.66
2023-05-07T22:53:40.498Z,19.66
2023-05-07T22:55:49.686Z,19.66
2023-05-07T22:57:58.997Z,19.67
2023-05-07T23:00:10.242Z,19.66
2023-05-07T23:02:19.633Z,19.57
2023-05-07T23:04:28.814Z,19.55
2023-05-07T23:06:38.160Z,19.54
2023-05-07T23:08:47.464Z,19.55
2023-05-07T23:10:56.576Z,19.55
2023-05-07T23:13:06.708Z,19.55
2023-05-07T23:15:16.836Z,19.50
2023-05-07T23:17:26.112Z,19.43
2023-05-07T23:19:36.147Z,19.38
2023-05-07T23:21:45.335Z,19.40
2023-05-07T23:23:54.507Z,19.44
2023-05-07T23:26:03.759Z,19.46
2023-05-07T23:28:12.878Z,19.49
2023-05-07T23:30:22.320Z,19.52
2023-05-07T23:32:32.262Z,19.51
2023-05-07T23:34:41.690Z,19.51
2023-05-07T23:36:51.124Z,19.56
2023-05-07T23:39:00.293Z,19.59
2023-05-07T23:41:09.744Z,19.59
2023-05-07T23:43:20.116Z,19.52
2023-05-07T23:45:29.268Z,19.50
2023-05-07T23:47:41.418Z,19.53
2023-05-07T23:49:50.686Z,19.55
2023-05-07T23:51:59.905Z,19.57
2023-05-07T23:54:09.378Z,19.61
2023-05-07T23:56:18.882Z,19.60
2023-05-07T23:58:28.156Z,19.56
